createdAt,value
2018-08-27T00:01:29.409Z,63.50
2018-08-27T00:04:02.085Z,63.50
2018-08-27T00:06:49.568Z,63.40
2018-08-27T00:09:22.321Z,63.60
2018-08-27T00:11:52.809Z,63.60
2018-08-27T00:14:22.753Z,63.20
2018-08-27T00:16:53.441Z,63.30
2018-08-27T00:19:24.777Z,63.20
2018-08-27T00:21:54.780Z,63.30
2018-08-27T00:24:24.918Z,63.30
2018-08-27T00:26:55.126Z,63.40
2018-08-27T00:29:27.386Z,63.00
2018-08-27T00:31:57.526Z,63.30
2018-08-27T00:34:28.942Z,63.30
2018-08-27T00:36:59.131Z,63.30
2018-08-27T00:39:37.332Z,63.00
2018-08-27T00:42:08.187Z,63.30
2018-08-27T00:44:38.500Z,63.10
2018-08-27T00:47:08.733Z,63.00
2018-08-27T00:49:38.776Z,63.30
2018-08-27T00:52:08.934Z,63.20
2018-08-27T00:54:39.050Z,63.00
2018-08-27T00:57:09.510Z,63.20
2018-08-27T00:59:39.857Z,63.20
2018-08-27T01:02:10.091Z,63.20
2018-08-27T01:04:40.374Z,63.20
2018-08-27T01:07:10.661Z,63.10
2018-08-27T01:09:40.895Z,63.20
2018-08-27T01:12:10.968Z,62.90
2018-08-27T01:14:41.343Z,62.90
2018-08-27T01:17:11.476Z,62.80
2018-08-27T01:19:41.889Z,63.00
2018-08-27T01:22:12.090Z,62.80
2018-08-27T01:24:42.238Z,62.70
2018-08-27T01:27:12.235Z,62.60
2018-08-27T01:29:42.382Z,62.50
2018-08-27T01:32:17.540Z,62.30
2018-08-27T01:34:47.720Z,62.50
2018-08-27T01:37:17.954Z,62.30
2018-08-27T01:39:48.057Z,62.30
2018-08-27T01:42:18.078Z,62.40
2018-08-27T01:44:48.359Z,62.20
2018-08-27T01:47:18.441Z,62.20
2018-08-27T01:49:48.652Z,62.20
2018-08-27T01:52:18.875Z,62.00
2018-08-27T01:54:49.193Z,62.10
2018-08-27T01:57:19.380Z,62.20
2018-08-27T01:59:49.535Z,62.00
2018-08-27T02:02:19.702Z,61.90
2018-08-27T02:04:49.759Z,62.10
2018-08-27T02:07:20.002Z,62.00
2018-08-27T02:09:50.322Z,61.70
2018-08-27T02:12:20.536Z,61.60
2018-08-27T02:14:50.651Z,61.40
2018-08-27T02:17:20.762Z,61.50
2018-08-27T02:19:50.809Z,61.50
2018-08-27T02:22:21.131Z,61.40
2018-08-27T02:24:51.317Z,61.00
2018-08-27T02:27:21.458Z,61.20
2018-08-27T02:29:51.916Z,60.20
2018-08-27T02:32:22.234Z,60.80
2018-08-27T02:34:52.563Z,60.60
2018-08-27T02:37:22.672Z,60.50
2018-08-27T02:39:52.855Z,60.70
2018-08-27T02:42:23.118Z,60.80
2018-08-27T02:44:53.241Z,60.70
2018-08-27T02:47:23.470Z,60.70
2018-08-27T02:49:53.532Z,60.70
2018-08-27T02:52:23.689Z,60.40
2018-08-27T02:54:53.690Z,60.60
2018-08-27T02:57:23.703Z,60.40
2018-08-27T02:59:53.714Z,60.20
2018-08-27T03:02:23.675Z,60.30
2018-08-27T03:04:53.850Z,60.10
2018-08-27T03:07:24.083Z,60.30
2018-08-27T03:09:54.263Z,60.40
2018-08-27T03:12:24.358Z,60.30
2018-08-27T03:14:54.561Z,60.10
2018-08-27T03:17:24.651Z,60.30
2018-08-27T03:19:54.902Z,60.10
2018-08-27T03:22:25.098Z,60.30
2018-08-27T03:24:55.420Z,60.50
2018-08-27T03:27:25.589Z,60.60
2018-08-27T03:29:55.874Z,60.80
2018-08-27T03:32:26.167Z,60.80
2018-08-27T03:34:56.318Z,60.60
2018-08-27T03:37:26.602Z,60.40
2018-08-27T03:39:56.649Z,60.70
2018-08-27T03:42:26.915Z,60.70
2018-08-27T03:44:57.269Z,60.90
2018-08-27T03:47:29.097Z,60.90
2018-08-27T03:50:01.883Z,60.90
2018-08-27T03:52:32.089Z,61.00
2018-08-27T03:55:02.286Z,61.10
2018-08-27T03:57:33.213Z,61.30
2018-08-27T04:00:03.484Z,61.40
2018-08-27T04:02:33.802Z,61.50
2018-08-27T04:05:03.937Z,61.60
2018-08-27T04:07:34.007Z,61.20
2018-08-27T04:10:04.400Z,62.20
2018-08-27T04:12:34.437Z,62.30
2018-08-27T04:15:04.718Z,62.80
2018-08-27T04:17:34.900Z,63.30
2018-08-27T04:20:05.081Z,63.40
2018-08-27T04:22:35.227Z,63.50
2018-08-27T04:25:05.476Z,63.80
2018-08-27T04:27:35.789Z,63.90
2018-08-27T04:30:06.044Z,64.10
2018-08-27T04:32:36.271Z,64.30
2018-08-27T04:35:06.435Z,64.30
2018-08-27T04:37:36.537Z,64.50
2018-08-27T04:40:06.666Z,64.50
2018-08-27T04:42:36.837Z,64.90
2018-08-27T04:45:07.140Z,65.20
2018-08-27T04:47:37.366Z,65.40
2018-08-27T04:50:07.542Z,65.20
2018-08-27T04:52:37.696Z,65.20
2018-08-27T04:55:08.266Z,65.40
2018-08-27T04:57:38.463Z,65.40
2018-08-27T05:00:16.609Z,65.50
2018-08-27T05:02:46.905Z,65.60
2018-08-27T05:05:17.089Z,68.30
2018-08-27T05:07:47.327Z,67.40
2018-08-27T05:10:17.493Z,67.30
2018-08-27T05:12:47.605Z,66.90
2018-08-27T05:15:17.902Z,67.10
2018-08-27T05:17:48.046Z,67.00
2018-08-27T05:20:18.203Z,67.00
2018-08-27T05:22:48.315Z,66.80
2018-08-27T05:25:18.454Z,66.80
2018-08-27T05:27:48.491Z,67.00
2018-08-27T05:30:18.617Z,67.10
2018-08-27T05:32:48.941Z,67.10
2018-08-27T05:35:19.255Z,67.10
2018-08-27T05:37:49.353Z,67.30
2018-08-27T05:40:19.569Z,68.20
2018-08-27T05:42:49.948Z,67.60
2018-08-27T05:45:19.954Z,67.80
2018-08-27T05:47:50.202Z,67.90
2018-08-27T05:50:20.245Z,67.80
2018-08-27T05:52:50.473Z,67.80
2018-08-27T05:55:20.811Z,67.80
2018-08-27T05:57:51.194Z,67.80
2018-08-27T06:00:21.335Z,67.70
2018-08-27T06:02:51.450Z,67.80
2018-08-27T06:05:21.569Z,68.30
2018-08-27T06:07:51.602Z,68.20
2018-08-27T06:10:21.939Z,68.50
2018-08-27T06:12:52.082Z,68.30
2018-08-27T06:15:22.586Z,68.60
2018-08-27T06:17:53.123Z,68.70
2018-08-27T06:20:23.256Z,68.70
2018-08-27T06:22:53.420Z,68.90
2018-08-27T06:25:23.677Z,69.00
2018-08-27T06:27:55.862Z,68.80
2018-08-27T06:30:26.185Z,68.90
2018-08-27T06:32:56.367Z,68.80
2018-08-27T06:35:26.617Z,69.00
2018-08-27T06:37:56.693Z,69.20
2018-08-27T06:40:26.723Z,69.20
2018-08-27T06:42:56.829Z,69.20
2018-08-27T06:45:26.937Z,69.30
2018-08-27T06:47:57.115Z,69.40
2018-08-27T06:50:27.435Z,69.50
2018-08-27T06:52:57.544Z,69.80
2018-08-27T06:55:28.889Z,69.60
2018-08-27T06:57:58.975Z,69.80
2018-08-27T07:00:29.142Z,69.80
2018-08-27T07:02:59.366Z,69.70
2018-08-27T07:05:29.565Z,69.60
2018-08-27T07:07:59.795Z,69.80
2018-08-27T07:10:29.789Z,69.80
2018-08-27T07:12:59.859Z,71.70
2018-08-27T07:15:30.039Z,73.70
2018-08-27T07:18:01.611Z,74.10
2018-08-27T07:20:31.779Z,73.10
2018-08-27T07:23:01.831Z,72.10
2018-08-27T07:25:32.065Z,71.70
2018-08-27T07:28:02.298Z,72.10
2018-08-27T07:30:32.334Z,71.20
2018-08-27T07:33:02.503Z,71.30
2018-08-27T07:35:32.600Z,71.20
2018-08-27T07:38:02.729Z,71.20
2018-08-27T07:40:32.793Z,71.20
2018-08-27T07:43:03.017Z,71.20
2018-08-27T07:45:33.213Z,71.30
2018-08-27T07:48:03.585Z,71.30
2018-08-27T07:50:33.955Z,71.10
2018-08-27T07:53:04.029Z,71.00
2018-08-27T07:55:34.313Z,71.10
2018-08-27T07:58:04.979Z,71.00
2018-08-27T08:00:35.045Z,71.20
2018-08-27T08:03:05.321Z,71.10
2018-08-27T08:05:35.606Z,71.00
2018-08-27T08:08:06.221Z,71.40
2018-08-27T08:10:36.449Z,72.30
2018-08-27T08:13:06.782Z,72.60
2018-08-27T08:15:36.971Z,71.80
2018-08-27T08:18:24.342Z,71.90
2018-08-27T08:20:55.774Z,71.60
2018-08-27T08:23:27.470Z,71.70
2018-08-27T08:25:57.530Z,71.80
2018-08-27T08:28:27.922Z,71.70
2018-08-27T08:30:57.975Z,71.90
2018-08-27T08:33:28.207Z,71.90
2018-08-27T08:35:58.473Z,71.60
2018-08-27T08:38:28.831Z,71.90
2018-08-27T08:40:59.059Z,72.00
2018-08-27T08:43:29.206Z,72.10
2018-08-27T08:45:59.552Z,72.20
2018-08-27T08:48:30.443Z,72.10
2018-08-27T08:51:00.608Z,72.70
2018-08-27T08:53:30.691Z,72.20
2018-08-27T08:56:00.911Z,72.30
2018-08-27T08:58:31.116Z,72.30
2018-08-27T09:01:01.316Z,72.50
2018-08-27T09:03:31.397Z,72.60
2018-08-27T09:06:01.474Z,76.50
2018-08-27T09:08:32.000Z,77.20
2018-08-27T09:11:02.129Z,79.10
2018-08-27T09:13:32.270Z,80.50
2018-08-27T09:16:03.390Z,80.30
2018-08-27T09:18:33.688Z,81.00
2018-08-27T09:21:04.106Z,80.60
2018-08-27T09:23:34.220Z,80.80
2018-08-27T09:26:04.492Z,82.20
2018-08-27T09:28:34.737Z,81.90
2018-08-27T09:31:04.972Z,82.80
2018-08-27T09:33:35.266Z,81.70
2018-08-27T09:36:05.413Z,81.80
2018-08-27T09:38:35.682Z,82.00
2018-08-27T09:41:05.657Z,82.60
2018-08-27T09:43:35.962Z,84.40
2018-08-27T09:46:06.349Z,85.20
2018-08-27T09:48:37.783Z,82.90
2018-08-27T09:51:08.183Z,83.40
2018-08-27T09:53:38.509Z,83.80
2018-08-27T09:56:08.830Z,85.80
2018-08-27T09:58:39.029Z,85.80
2018-08-27T10:01:15.186Z,85.80
2018-08-27T10:03:46.190Z,86.40
2018-08-27T10:06:16.434Z,83.90
2018-08-27T10:08:46.769Z,83.40
2018-08-27T10:11:17.103Z,83.00
2018-08-27T10:13:47.297Z,83.60
2018-08-27T10:16:17.452Z,83.10
2018-08-27T10:18:47.665Z,82.50
2018-08-27T10:21:18.045Z,83.20
2018-08-27T10:23:48.415Z,83.00
2018-08-27T10:26:18.713Z,82.30
2018-08-27T10:28:48.914Z,82.50
2018-08-27T10:31:19.147Z,81.70
2018-08-27T10:33:49.387Z,82.70
2018-08-27T10:36:19.714Z,82.60
2018-08-27T10:38:50.025Z,83.80
2018-08-27T10:41:20.185Z,83.90
2018-08-27T10:43:50.401Z,84.10
2018-08-27T10:46:20.537Z,84.10
2018-08-27T10:48:50.597Z,84.60
2018-08-27T10:51:20.700Z,84.20
2018-08-27T10:53:50.938Z,84.60
2018-08-27T10:56:21.155Z,83.40
2018-08-27T10:58:51.270Z,82.90
2018-08-27T11:01:21.554Z,82.70
2018-08-27T11:03:51.742Z,82.80
2018-08-27T11:06:21.768Z,82.80
2018-08-27T11:08:52.126Z,82.70
2018-08-27T11:11:22.421Z,82.50
2018-08-27T11:13:52.734Z,82.80
2018-08-27T11:16:22.845Z,82.50
2018-08-27T11:18:53.047Z,83.40
2018-08-27T11:21:23.172Z,82.60
2018-08-27T11:23:53.274Z,82.90
2018-08-27T11:26:23.594Z,83.50
2018-08-27T11:28:53.681Z,83.00
2018-08-27T11:31:23.981Z,82.60
2018-08-27T11:33:54.275Z,82.70
2018-08-27T11:36:24.665Z,82.80
2018-08-27T11:38:54.969Z,82.80
2018-08-27T11:41:25.154Z,82.60
2018-08-27T11:43:55.370Z,82.80
2018-08-27T11:46:25.625Z,83.20
2018-08-27T11:48:55.817Z,82.20
2018-08-27T11:51:26.037Z,82.20
2018-08-27T11:53:57.226Z,81.60
2018-08-27T11:56:27.561Z,81.80
2018-08-27T11:58:57.731Z,81.90
2018-08-27T12:01:28.181Z,81.80
2018-08-27T12:03:58.401Z,81.80
2018-08-27T12:06:28.566Z,82.10
2018-08-27T12:08:58.814Z,82.40
2018-08-27T12:11:29.045Z,81.80
2018-08-27T12:13:59.263Z,82.00
2018-08-27T12:16:29.502Z,82.00
2018-08-27T12:19:00.588Z,82.20
2018-08-27T12:21:30.892Z,81.90
2018-08-27T12:24:19.850Z,81.70
2018-08-27T12:26:51.106Z,81.70
2018-08-27T12:29:22.239Z,82.00
2018-08-27T12:31:53.548Z,81.40
2018-08-27T12:34:24.675Z,81.90
2018-08-27T12:36:56.011Z,81.80
2018-08-27T12:39:36.350Z,81.80
2018-08-27T12:42:13.296Z,81.30
2018-08-27T12:44:46.906Z,81.40
2018-08-27T12:47:18.748Z,81.10
2018-08-27T12:49:49.869Z,80.90
2018-08-27T12:52:22.304Z,81.00
2018-08-27T12:54:53.530Z,80.90
2018-08-27T12:57:24.578Z,80.80
2018-08-27T12:59:55.501Z,80.80
2018-08-27T13:02:26.690Z,80.70
2018-08-27T13:04:57.638Z,80.30
2018-08-27T13:07:28.751Z,80.30
2018-08-27T13:09:59.898Z,80.40
2018-08-27T13:12:30.968Z,80.10
2018-08-27T13:15:02.009Z,79.80
2018-08-27T13:17:33.450Z,79.90
2018-08-27T14:01:57.326Z,78.40
2018-08-27T14:04:33.393Z,78.40
2018-08-27T14:07:06.196Z,78.20
2018-08-27T14:15:41.213Z,77.50
2018-08-27T14:18:17.115Z,78.60
2018-08-27T14:23:43.974Z,77.90
2018-08-27T14:26:14.730Z,78.50
2018-08-27T14:28:50.776Z,78.50
2018-08-27T14:31:23.102Z,78.30
2018-08-27T14:33:53.876Z,78.00
2018-08-27T14:36:24.679Z,77.80
2018-08-27T14:38:55.612Z,77.60
2018-08-27T14:41:26.349Z,77.40
2018-08-27T14:52:48.904Z,77.00
2018-08-27T14:55:19.909Z,77.70
2018-08-27T14:57:55.963Z,77.20
2018-08-27T15:00:27.310Z,77.30
2018-08-27T15:02:58.251Z,77.40
2018-08-27T15:05:34.235Z,77.60
2018-08-27T15:08:10.359Z,77.70
2018-08-27T15:10:46.541Z,77.60
2018-08-27T15:13:22.574Z,77.70
2018-08-27T15:15:58.656Z,77.60
2018-08-27T15:18:29.526Z,77.50
2018-08-27T15:21:00.315Z,77.50
2018-08-27T15:23:32.084Z,78.30
2018-08-27T15:26:02.836Z,77.70
2018-08-27T15:28:33.631Z,77.50
2018-08-27T15:31:04.301Z,77.50
2018-08-27T15:33:34.898Z,77.60
2018-08-27T15:36:05.757Z,77.70
2018-08-27T15:38:36.538Z,77.60
2018-08-27T15:41:12.442Z,77.60
2018-08-27T15:43:43.149Z,77.60
2018-08-27T15:52:06.981Z,77.50
2018-08-27T15:54:38.130Z,77.50
2018-08-27T15:57:08.873Z,77.70
2018-08-27T15:59:39.665Z,77.50
2018-08-27T16:02:10.516Z,77.50
2018-08-27T16:04:41.231Z,77.50
2018-08-27T16:07:11.731Z,77.50
2018-08-27T16:09:42.585Z,77.60
2018-08-27T16:12:13.206Z,77.70
2018-08-27T16:14:43.999Z,77.70
2018-08-27T16:17:14.816Z,77.50
2018-08-27T16:19:45.654Z,77.40
2018-08-27T16:22:16.465Z,77.50
2018-08-27T16:24:47.115Z,77.40
2018-08-27T16:27:17.913Z,77.50
2018-08-27T16:29:48.822Z,77.50
2018-08-27T16:32:19.520Z,77.90
2018-08-27T16:34:50.252Z,77.20
2018-08-27T16:37:21.064Z,77.20
2018-08-27T16:39:51.818Z,77.20
2018-08-27T16:42:22.766Z,77.20
2018-08-27T16:44:53.701Z,77.20
2018-08-27T16:47:24.330Z,77.20
2018-08-27T16:49:55.087Z,77.20
2018-08-27T16:52:25.927Z,77.10
2018-08-27T16:54:56.747Z,77.00
2018-08-27T16:57:27.593Z,77.00
2018-08-27T16:59:58.347Z,77.00
2018-08-27T17:02:31.060Z,77.00
2018-08-27T17:05:04.925Z,76.80
2018-08-27T17:07:37.220Z,76.90
2018-08-27T17:10:08.233Z,76.90
2018-08-27T17:12:39.051Z,76.80
2018-08-27T17:15:09.789Z,76.70
2018-08-27T17:17:42.466Z,76.70
2018-08-27T17:20:13.312Z,76.70
2018-08-27T17:22:43.862Z,76.60
2018-08-27T17:25:14.616Z,76.50
2018-08-27T17:27:45.654Z,76.50
2018-08-27T17:30:16.777Z,76.40
2018-08-27T17:32:48.862Z,76.40
2018-08-27T17:35:19.552Z,76.50
2018-08-27T17:37:50.254Z,76.40
2018-08-27T17:40:21.077Z,76.30
2018-08-27T17:42:51.946Z,76.30
2018-08-27T17:45:22.744Z,76.20
2018-08-27T17:47:54.018Z,76.30
2018-08-27T17:50:26.252Z,76.20
2018-08-27T17:52:58.279Z,76.10
2018-08-27T17:55:30.208Z,76.10
2018-08-27T17:58:02.416Z,76.10
2018-08-27T18:00:34.171Z,76.10
2018-08-27T18:03:05.091Z,76.00
2018-08-27T18:05:36.183Z,75.90
2018-08-27T18:08:06.962Z,76.00
2018-08-27T18:10:37.781Z,76.10
2018-08-27T18:13:08.613Z,76.20
2018-08-27T18:15:39.528Z,76.10
2018-08-27T18:18:11.420Z,76.20
2018-08-27T18:20:42.441Z,76.00
2018-08-27T18:23:13.005Z,75.90
2018-08-27T18:25:43.678Z,76.10
2018-08-27T18:28:14.731Z,75.90
2018-08-27T18:30:45.308Z,75.90
2018-08-27T18:33:16.072Z,76.00
2018-08-27T18:35:46.592Z,75.90
2018-08-27T18:38:17.301Z,75.90
2018-08-27T18:40:48.053Z,75.80
2018-08-27T18:43:19.000Z,75.90
2018-08-27T18:45:49.843Z,75.80
2018-08-27T18:48:20.732Z,75.90
2018-08-27T18:50:51.542Z,76.10
2018-08-27T18:53:22.173Z,75.80
2018-08-27T18:55:53.125Z,75.80
2018-08-27T18:58:23.688Z,76.00
2018-08-27T19:00:54.585Z,76.00
2018-08-27T19:03:25.280Z,76.00
2018-08-27T19:05:55.985Z,75.90
2018-08-27T19:08:26.719Z,75.90
2018-08-27T19:10:57.502Z,75.90
2018-08-27T19:13:27.988Z,76.00
2018-08-27T19:15:58.673Z,75.70
2018-08-27T19:18:29.454Z,75.90
2018-08-27T19:21:00.103Z,75.90
2018-08-27T19:23:31.013Z,75.70
2018-08-27T19:26:01.734Z,75.50
2018-08-27T19:28:32.471Z,75.30
2018-08-27T19:31:03.586Z,75.40
2018-08-27T19:33:34.522Z,75.50
2018-08-27T19:36:05.349Z,75.60
2018-08-27T19:38:36.008Z,75.80
2018-08-27T19:41:06.938Z,75.70
2018-08-27T19:43:39.224Z,75.70
2018-08-27T19:46:10.179Z,75.80
2018-08-27T19:48:41.072Z,75.40
2018-08-27T19:51:11.887Z,75.60
2018-08-27T19:53:42.560Z,75.40
2018-08-27T19:56:13.671Z,75.40
2018-08-27T19:58:44.599Z,75.40
2018-08-27T20:01:15.448Z,75.40
2018-08-27T20:03:45.959Z,75.40
2018-08-27T20:06:16.733Z,76.10
2018-08-27T20:08:47.430Z,75.40
2018-08-27T20:11:18.080Z,75.30
2018-08-27T20:13:48.706Z,74.80
2018-08-27T20:16:19.471Z,75.30
2018-08-27T20:18:50.079Z,75.50
2018-08-27T20:21:20.861Z,75.30
2018-08-27T20:23:51.480Z,75.30
2018-08-27T20:26:22.451Z,75.20
2018-08-27T20:28:55.030Z,75.30
2018-08-27T20:31:26.003Z,75.20
2018-08-27T20:33:56.635Z,75.10
2018-08-27T20:36:28.234Z,75.10
2018-08-27T20:38:59.066Z,75.10
2018-08-27T20:41:29.809Z,75.10
2018-08-27T20:44:00.402Z,75.20
2018-08-27T20:46:30.891Z,75.00
2018-08-27T20:49:01.681Z,75.10
2018-08-27T20:51:32.714Z,74.90
2018-08-27T20:54:03.446Z,75.00
2018-08-27T20:56:34.103Z,74.90
2018-08-27T21:01:44.042Z,75.00
2018-08-27T21:04:14.687Z,75.20
2018-08-27T21:06:45.337Z,74.90
2018-08-27T21:09:15.966Z,74.70
2018-08-27T21:11:46.565Z,74.70
2018-08-27T21:15:26.253Z,74.70
2018-08-27T21:17:57.075Z,74.50
2018-08-27T21:20:27.853Z,74.30
2018-08-27T21:22:58.804Z,74.30
2018-08-27T21:25:29.431Z,74.30
2018-08-27T21:28:00.438Z,74.10
2018-08-27T21:30:31.578Z,74.30
2018-08-27T21:33:02.165Z,74.20
2018-08-27T21:35:32.689Z,74.10
2018-08-27T21:38:03.040Z,74.00
2018-08-27T21:40:34.531Z,73.90
2018-08-27T21:43:05.356Z,73.80
2018-08-27T21:45:36.467Z,73.80
2018-08-27T21:48:07.437Z,73.80
2018-08-27T21:50:38.288Z,73.80
2018-08-27T21:53:09.011Z,73.90
2018-08-27T21:55:39.573Z,73.70
2018-08-27T21:58:10.010Z,73.60
2018-08-27T22:00:45.834Z,73.70
2018-08-27T22:03:21.523Z,73.80
2018-08-27T22:05:52.050Z,73.80
2018-08-27T22:08:22.667Z,73.70
2018-08-27T22:10:53.434Z,73.70
2018-08-27T22:13:24.380Z,74.00
2018-08-27T22:15:55.117Z,73.50
2018-08-27T22:18:25.931Z,73.90
2018-08-27T22:20:56.457Z,73.80
2018-08-27T22:23:27.049Z,73.60
2018-08-27T22:25:57.864Z,73.70
2018-08-27T22:28:28.631Z,73.80
2018-08-27T22:30:59.368Z,73.90
2018-08-27T22:33:29.978Z,73.90
2018-08-27T22:36:00.497Z,73.80
2018-08-27T22:38:31.048Z,73.90
2018-08-27T22:41:01.479Z,73.80
2018-08-27T22:43:32.310Z,73.80
2018-08-27T22:46:02.930Z,73.90
2018-08-27T22:48:33.509Z,74.00
2018-08-27T22:51:04.000Z,74.00
2018-08-27T22:53:34.398Z,74.00
2018-08-27T22:56:04.849Z,74.10
2018-08-27T22:58:35.455Z,74.00
2018-08-27T23:01:06.075Z,73.90
2018-08-27T23:03:41.746Z,73.90
2018-08-27T23:06:12.418Z,73.90
2018-08-27T23:08:43.029Z,73.90
2018-08-27T23:11:13.468Z,73.90
2018-08-27T23:13:44.090Z,73.90
2018-08-27T23:16:19.882Z,73.90
2018-08-27T23:18:50.591Z,74.50
2018-08-27T23:21:21.005Z,74.00
2018-08-27T23:23:51.737Z,74.10
2018-08-27T23:26:22.577Z,74.60
2018-08-27T23:28:53.621Z,73.90
2018-08-27T23:31:24.649Z,74.00
2018-08-27T23:33:55.142Z,73.90
2018-08-27T23:36:25.673Z,74.00
2018-08-27T23:38:56.140Z,73.90
2018-08-27T23:41:26.802Z,74.00
2018-08-27T23:43:57.587Z,74.10
2018-08-27T23:46:28.258Z,73.80
2018-08-27T23:48:58.936Z,73.80
2018-08-27T23:51:29.613Z,73.70
2018-08-27T23:54:00.286Z,73.70
2018-08-27T23:56:31.015Z,73.60
2018-08-27T23:59:01.641Z,73.70
